sensor_id;sensor_type;location;lat;lon;timestamp;P1;durP1;ratioP1;P2;durP2;ratioP2
40170;SDS011;37650;52.790;18.268;2022-07-15T00:00:33;5.20;;;1.20;;
40170;SDS011;37650;52.790;18.268;2022-07-15T00:03:53;5.60;;;1.80;;
40170;SDS011;37650;52.790;18.268;2022-07-15T00:07:15;2.40;;;1.10;;
40170;SDS011;37650;52.790;18.268;2022-07-15T00:10:36;5.20;;;1.40;;
40170;SDS011;37650;52.790;18.268;2022-07-15T00:13:56;5.60;;;1.90;;
40170;SDS011;37650;52.790;18.268;2022-07-15T00:17:17;6.20;;;1.50;;
40170;SDS011;37650;52.790;18.268;2022-07-15T00:20:39;7.40;;;2.10;;
40170;SDS011;37650;52.790;18.268;2022-07-15T00:24:00;12.10;;;2.50;;
40170;SDS011;37650;52.790;18.268;2022-07-15T00:27:21;14.40;;;2.00;;
40170;SDS011;37650;52.790;18.268;2022-07-15T00:30:42;10.10;;;2.10;;
40170;SDS011;37650;52.790;18.268;2022-07-15T00:34:03;16.00;;;2.90;;
40170;SDS011;37650;52.790;18.268;2022-07-15T00:37:23;14.30;;;2.80;;
40170;SDS011;37650;52.790;18.268;2022-07-15T00:40:45;17.40;;;3.50;;
40170;SDS011;37650;52.790;18.268;2022-07-15T00:44:08;12.20;;;2.90;;
40170;SDS011;37650;52.790;18.268;2022-07-15T00:47:29;17.60;;;2.90;;
40170;SDS011;37650;52.790;18.268;2022-07-15T00:50:51;12.60;;;2.70;;
40170;SDS011;37650;52.790;18.268;2022-07-15T00:54:12;15.30;;;2.80;;
40170;SDS011;37650;52.790;18.268;2022-07-15T00:57:36;8.60;;;2.20;;
40170;SDS011;37650;52.790;18.268;2022-07-15T01:00:59;14.50;;;2.60;;
40170;SDS011;37650;52.790;18.268;2022-07-15T01:04:21;9.40;;;1.70;;
40170;SDS011;37650;52.790;18.268;2022-07-15T01:07:44;4.70;;;1.50;;
40170;SDS011;37650;52.790;18.268;2022-07-15T01:11:06;6.60;;;2.00;;
40170;SDS011;37650;52.790;18.268;2022-07-15T01:14:27;11.70;;;3.20;;
40170;SDS011;37650;52.790;18.268;2022-07-15T01:17:48;9.40;;;3.20;;
40170;SDS011;37650;52.790;18.268;2022-07-15T01:21:09;19.00;;;4.80;;
40170;SDS011;37650;52.790;18.268;2022-07-15T01:24:30;10.20;;;4.10;;
40170;SDS011;37650;52.790;18.268;2022-07-15T01:28:10;9.40;;;3.20;;
40170;SDS011;37650;52.790;18.268;2022-07-15T01:31:32;6.40;;;2.30;;
40170;SDS011;37650;52.790;18.268;2022-07-15T01:34:55;7.90;;;2.00;;
40170;SDS011;37650;52.790;18.268;2022-07-15T01:38:17;8.30;;;1.90;;
40170;SDS011;37650;52.790;18.268;2022-07-15T01:41:40;7.70;;;2.10;;
40170;SDS011;37650;52.790;18.268;2022-07-15T01:45:06;8.40;;;2.20;;
40170;SDS011;37650;52.790;18.268;2022-07-15T01:48:29;7.40;;;1.90;;
40170;SDS011;37650;52.790;18.268;2022-07-15T01:52:41;7.20;;;1.70;;
40170;SDS011;37650;52.790;18.268;2022-07-15T01:56:02;9.20;;;2.00;;
40170;SDS011;37650;52.790;18.268;2022-07-15T01:59:25;9.90;;;2.10;;
40170;SDS011;37650;52.790;18.268;2022-07-15T02:02:47;10.40;;;1.80;;
40170;SDS011;37650;52.790;18.268;2022-07-15T02:06:12;4.70;;;1.60;;
40170;SDS011;37650;52.790;18.268;2022-07-15T02:09:34;7.00;;;1.60;;
40170;SDS011;37650;52.790;18.268;2022-07-15T02:12:55;7.70;;;1.50;;
40170;SDS011;37650;52.790;18.268;2022-07-15T02:16:20;8.80;;;1.80;;
40170;SDS011;37650;52.790;18.268;2022-07-15T02:19:41;7.10;;;1.40;;
40170;SDS011;37650;52.790;18.268;2022-07-15T02:23:01;7.50;;;1.70;;
40170;SDS011;37650;52.790;18.268;2022-07-15T02:26:23;7.20;;;1.40;;
40170;SDS011;37650;52.790;18.268;2022-07-15T02:29:44;9.30;;;1.90;;
40170;SDS011;37650;52.790;18.268;2022-07-15T02:33:06;7.20;;;1.60;;
40170;SDS011;37650;52.790;18.268;2022-07-15T02:36:27;3.60;;;1.20;;
40170;SDS011;37650;52.790;18.268;2022-07-15T02:39:49;5.20;;;1.10;;
40170;SDS011;37650;52.790;18.268;2022-07-15T02:43:10;3.80;;;1.40;;
40170;SDS011;37650;52.790;18.268;2022-07-15T02:46:31;3.00;;;1.20;;
40170;SDS011;37650;52.790;18.268;2022-07-15T02:49:52;6.30;;;1.30;;
40170;SDS011;37650;52.790;18.268;2022-07-15T02:53:14;8.20;;;1.60;;
40170;SDS011;37650;52.790;18.268;2022-07-15T02:56:36;6.90;;;1.50;;
40170;SDS011;37650;52.790;18.268;2022-07-15T02:59:57;5.20;;;1.40;;
40170;SDS011;37650;52.790;18.268;2022-07-15T03:03:19;7.30;;;1.60;;
40170;SDS011;37650;52.790;18.268;2022-07-15T03:06:40;10.00;;;1.80;;
40170;SDS011;37650;52.790;18.268;2022-07-15T03:10:02;8.40;;;1.80;;
40170;SDS011;37650;52.790;18.268;2022-07-15T03:13:24;9.80;;;1.80;;
40170;SDS011;37650;52.790;18.268;2022-07-15T03:16:46;6.40;;;1.80;;
40170;SDS011;37650;52.790;18.268;2022-07-15T03:20:08;7.50;;;1.90;;
40170;SDS011;37650;52.790;18.268;2022-07-15T03:23:32;5.80;;;1.70;;
40170;SDS011;37650;52.790;18.268;2022-07-15T03:26:53;5.40;;;1.70;;
40170;SDS011;37650;52.790;18.268;2022-07-15T03:30:15;4.80;;;1.60;;
40170;SDS011;37650;52.790;18.268;2022-07-15T03:33:36;5.40;;;1.90;;
40170;SDS011;37650;52.790;18.268;2022-07-15T03:36:58;5.90;;;1.50;;
40170;SDS011;37650;52.790;18.268;2022-07-15T03:40:20;4.10;;;1.40;;
40170;SDS011;37650;52.790;18.268;2022-07-15T03:43:41;4.40;;;1.30;;
40170;SDS011;37650;52.790;18.268;2022-07-15T03:47:02;5.80;;;1.70;;
40170;SDS011;37650;52.790;18.268;2022-07-15T03:50:23;5.90;;;2.00;;
40170;SDS011;37650;52.790;18.268;2022-07-15T03:53:44;5.10;;;1.60;;
40170;SDS011;37650;52.790;18.268;2022-07-15T03:57:05;4.60;;;1.80;;
40170;SDS011;37650;52.790;18.268;2022-07-15T04:00:25;7.00;;;1.50;;
40170;SDS011;37650;52.790;18.268;2022-07-15T04:03:49;3.20;;;1.30;;
40170;SDS011;37650;52.790;18.268;2022-07-15T04:07:11;5.10;;;1.70;;
40170;SDS011;37650;52.790;18.268;2022-07-15T04:10:32;4.40;;;1.50;;
40170;SDS011;37650;52.790;18.268;2022-07-15T04:13:53;3.90;;;1.50;;
40170;SDS011;37650;52.790;18.268;2022-07-15T04:17:13;5.00;;;1.50;;
40170;SDS011;37650;52.790;18.268;2022-07-15T04:20:34;2.80;;;1.40;;
40170;SDS011;37650;52.790;18.268;2022-07-15T04:23:55;5.20;;;1.50;;
40170;SDS011;37650;52.790;18.268;2022-07-15T04:27:16;4.00;;;1.60;;
40170;SDS011;37650;52.790;18.268;2022-07-15T04:30:38;4.10;;;1.80;;
40170;SDS011;37650;52.790;18.268;2022-07-15T04:33:58;6.40;;;2.20;;
40170;SDS011;37650;52.790;18.268;2022-07-15T04:37:20;4.90;;;1.80;;
40170;SDS011;37650;52.790;18.268;2022-07-15T04:40:45;4.80;;;1.70;;
40170;SDS011;37650;52.790;18.268;2022-07-15T04:44:07;7.20;;;2.00;;
40170;SDS011;37650;52.790;18.268;2022-07-15T04:47:27;5.10;;;1.40;;
40170;SDS011;37650;52.790;18.268;2022-07-15T04:50:54;5.10;;;1.80;;
40170;SDS011;37650;52.790;18.268;2022-07-15T04:54:19;5.60;;;1.90;;
40170;SDS011;37650;52.790;18.268;2022-07-15T04:57:41;4.90;;;2.20;;
40170;SDS011;37650;52.790;18.268;2022-07-15T05:01:03;5.00;;;1.50;;
40170;SDS011;37650;52.790;18.268;2022-07-15T05:07:47;5.70;;;1.80;;
40170;SDS011;37650;52.790;18.268;2022-07-15T05:11:08;6.30;;;1.90;;
40170;SDS011;37650;52.790;18.268;2022-07-15T05:14:29;6.50;;;1.80;;
40170;SDS011;37650;52.790;18.268;2022-07-15T05:17:52;6.20;;;1.80;;
40170;SDS011;37650;52.790;18.268;2022-07-15T05:21:14;6.80;;;1.70;;
40170;SDS011;37650;52.790;18.268;2022-07-15T05:24:35;8.60;;;1.70;;
40170;SDS011;37650;52.790;18.268;2022-07-15T05:27:57;6.00;;;1.80;;
40170;SDS011;37650;52.790;18.268;2022-07-15T05:31:18;6.80;;;1.70;;
40170;SDS011;37650;52.790;18.268;2022-07-15T05:34:40;6.70;;;1.60;;
40170;SDS011;37650;52.790;18.268;2022-07-15T05:38:02;8.40;;;1.50;;
40170;SDS011;37650;52.790;18.268;2022-07-15T05:41:24;6.40;;;1.80;;
40170;SDS011;37650;52.790;18.268;2022-07-15T05:44:45;5.30;;;1.90;;
40170;SDS011;37650;52.790;18.268;2022-07-15T05:48:08;6.30;;;1.80;;
40170;SDS011;37650;52.790;18.268;2022-07-15T05:51:42;9.10;;;2.30;;
40170;SDS011;37650;52.790;18.268;2022-07-15T05:58:26;5.50;;;1.60;;
40170;SDS011;37650;52.790;18.268;2022-07-15T06:01:48;5.70;;;1.60;;
40170;SDS011;37650;52.790;18.268;2022-07-15T06:09:48;7.90;;;1.80;;
40170;SDS011;37650;52.790;18.268;2022-07-15T06:13:42;5.50;;;1.30;;
40170;SDS011;37650;52.790;18.268;2022-07-15T06:17:04;5.60;;;1.90;;
40170;SDS011;37650;52.790;18.268;2022-07-15T06:20:25;7.60;;;1.60;;
40170;SDS011;37650;52.790;18.268;2022-07-15T06:23:47;5.40;;;1.40;;
40170;SDS011;37650;52.790;18.268;2022-07-15T06:27:07;7.40;;;1.70;;
40170;SDS011;37650;52.790;18.268;2022-07-15T06:30:29;4.40;;;1.50;;
40170;SDS011;37650;52.790;18.268;2022-07-15T06:33:51;7.30;;;2.00;;
40170;SDS011;37650;52.790;18.268;2022-07-15T06:37:11;9.10;;;1.60;;
40170;SDS011;37650;52.790;18.268;2022-07-15T06:40:32;3.90;;;1.20;;
40170;SDS011;37650;52.790;18.268;2022-07-15T06:43:54;7.20;;;2.10;;
40170;SDS011;37650;52.790;18.268;2022-07-15T06:47:41;6.40;;;2.40;;
40170;SDS011;37650;52.790;18.268;2022-07-15T06:51:03;6.70;;;1.90;;
40170;SDS011;37650;52.790;18.268;2022-07-15T06:54:23;5.20;;;1.40;;
40170;SDS011;37650;52.790;18.268;2022-07-15T06:57:45;4.20;;;1.60;;
40170;SDS011;37650;52.790;18.268;2022-07-15T07:01:06;8.20;;;1.30;;
40170;SDS011;37650;52.790;18.268;2022-07-15T07:04:28;5.00;;;1.20;;
40170;SDS011;37650;52.790;18.268;2022-07-15T07:07:48;6.90;;;1.50;;
40170;SDS011;37650;52.790;18.268;2022-07-15T07:11:09;6.10;;;1.40;;
40170;SDS011;37650;52.790;18.268;2022-07-15T07:14:30;5.90;;;1.30;;
40170;SDS011;37650;52.790;18.268;2022-07-15T07:17:51;8.00;;;1.40;;
40170;SDS011;37650;52.790;18.268;2022-07-15T07:24:33;6.10;;;1.20;;
40170;SDS011;37650;52.790;18.268;2022-07-15T07:27:54;5.20;;;1.40;;
40170;SDS011;37650;52.790;18.268;2022-07-15T07:31:15;4.30;;;1.20;;
40170;SDS011;37650;52.790;18.268;2022-07-15T07:34:36;4.90;;;1.00;;
40170;SDS011;37650;52.790;18.268;2022-07-15T07:37:57;6.40;;;1.40;;
40170;SDS011;37650;52.790;18.268;2022-07-15T07:41:18;6.10;;;1.20;;
40170;SDS011;37650;52.790;18.268;2022-07-15T07:44:39;3.00;;;0.90;;
40170;SDS011;37650;52.790;18.268;2022-07-15T07:48:00;5.40;;;1.30;;
40170;SDS011;37650;52.790;18.268;2022-07-15T07:51:21;3.30;;;0.80;;
40170;SDS011;37650;52.790;18.268;2022-07-15T07:54:42;3.60;;;1.20;;
40170;SDS011;37650;52.790;18.268;2022-07-15T07:58:04;5.50;;;0.90;;
40170;SDS011;37650;52.790;18.268;2022-07-15T08:01:25;4.20;;;0.90;;
40170;SDS011;37650;52.790;18.268;2022-07-15T08:04:46;3.40;;;1.00;;
40170;SDS011;37650;52.790;18.268;2022-07-15T08:08:08;3.80;;;0.80;;
40170;SDS011;37650;52.790;18.268;2022-07-15T08:11:33;2.00;;;0.90;;
40170;SDS011;37650;52.790;18.268;2022-07-15T08:14:54;6.80;;;0.80;;
40170;SDS011;37650;52.790;18.268;2022-07-15T08:18:15;1.50;;;0.40;;
40170;SDS011;37650;52.790;18.268;2022-07-15T08:21:35;4.20;;;0.80;;
40170;SDS011;37650;52.790;18.268;2022-07-15T08:24:56;5.00;;;1.30;;
40170;SDS011;37650;52.790;18.268;2022-07-15T08:28:17;5.50;;;1.10;;
40170;SDS011;37650;52.790;18.268;2022-07-15T08:31:39;2.70;;;0.80;;
40170;SDS011;37650;52.790;18.268;2022-07-15T08:35:00;3.70;;;0.70;;
40170;SDS011;37650;52.790;18.268;2022-07-15T08:38:20;3.60;;;0.80;;
40170;SDS011;37650;52.790;18.268;2022-07-15T08:41:41;4.90;;;1.00;;
40170;SDS011;37650;52.790;18.268;2022-07-15T08:45:02;3.40;;;0.70;;
40170;SDS011;37650;52.790;18.268;2022-07-15T08:48:23;5.00;;;0.90;;
40170;SDS011;37650;52.790;18.268;2022-07-15T08:51:49;3.50;;;0.60;;
40170;SDS011;37650;52.790;18.268;2022-07-15T08:55:11;3.80;;;0.70;;
40170;SDS011;37650;52.790;18.268;2022-07-15T08:58:35;3.00;;;0.70;;
40170;SDS011;37650;52.790;18.268;2022-07-15T09:01:57;4.80;;;1.00;;
40170;SDS011;37650;52.790;18.268;2022-07-15T09:05:21;3.10;;;0.80;;
40170;SDS011;37650;52.790;18.268;2022-07-15T09:08:43;4.80;;;0.90;;
40170;SDS011;37650;52.790;18.268;2022-07-15T09:15:33;3.90;;;0.80;;
40170;SDS011;37650;52.790;18.268;2022-07-15T09:18:55;5.40;;;0.80;;
40170;SDS011;37650;52.790;18.268;2022-07-15T09:22:16;2.40;;;0.70;;
40170;SDS011;37650;52.790;18.268;2022-07-15T09:25:38;3.60;;;1.00;;
40170;SDS011;37650;52.790;18.268;2022-07-15T09:28:59;3.10;;;0.80;;
40170;SDS011;37650;52.790;18.268;2022-07-15T09:32:20;5.80;;;1.00;;
40170;SDS011;37650;52.790;18.268;2022-07-15T09:39:52;3.30;;;0.80;;
40170;SDS011;37650;52.790;18.268;2022-07-15T09:43:14;7.40;;;1.00;;
40170;SDS011;37650;52.790;18.268;2022-07-15T09:46:42;6.40;;;1.00;;
40170;SDS011;37650;52.790;18.268;2022-07-15T09:50:04;5.10;;;0.90;;
40170;SDS011;37650;52.790;18.268;2022-07-15T09:53:27;6.00;;;1.20;;
40170;SDS011;37650;52.790;18.268;2022-07-15T09:56:49;2.50;;;0.50;;
40170;SDS011;37650;52.790;18.268;2022-07-15T10:00:13;5.40;;;0.90;;
40170;SDS011;37650;52.790;18.268;2022-07-15T10:03:35;6.00;;;1.30;;
40170;SDS011;37650;52.790;18.268;2022-07-15T10:06:57;3.90;;;0.80;;
40170;SDS011;37650;52.790;18.268;2022-07-15T10:10:22;5.10;;;1.80;;
40170;SDS011;37650;52.790;18.268;2022-07-15T10:14:09;4.30;;;1.90;;
40170;SDS011;37650;52.790;18.268;2022-07-15T10:21:45;5.10;;;0.80;;
40170;SDS011;37650;52.790;18.268;2022-07-15T10:29:07;4.00;;;0.80;;
40170;SDS011;37650;52.790;18.268;2022-07-15T10:32:35;6.70;;;1.90;;
40170;SDS011;37650;52.790;18.268;2022-07-15T10:36:25;3.20;;;1.00;;
40170;SDS011;37650;52.790;18.268;2022-07-15T10:43:06;3.90;;;1.00;;
40170;SDS011;37650;52.790;18.268;2022-07-15T10:46:28;5.20;;;1.10;;
40170;SDS011;37650;52.790;18.268;2022-07-15T10:49:49;5.40;;;0.90;;
40170;SDS011;37650;52.790;18.268;2022-07-15T10:53:14;4.40;;;1.10;;
40170;SDS011;37650;52.790;18.268;2022-07-15T10:56:41;3.70;;;0.90;;
40170;SDS011;37650;52.790;18.268;2022-07-15T11:00:04;3.50;;;0.90;;
40170;SDS011;37650;52.790;18.268;2022-07-15T11:04:10;4.40;;;0.80;;
40170;SDS011;37650;52.790;18.268;2022-07-15T11:07:33;4.80;;;1.00;;
40170;SDS011;37650;52.790;18.268;2022-07-15T11:10:56;5.80;;;1.00;;
40170;SDS011;37650;52.790;18.268;2022-07-15T11:18:06;4.90;;;0.70;;
40170;SDS011;37650;52.790;18.268;2022-07-15T11:21:27;5.70;;;0.90;;
40170;SDS011;37650;52.790;18.268;2022-07-15T11:24:48;4.10;;;1.40;;
40170;SDS011;37650;52.790;18.268;2022-07-15T11:28:10;3.50;;;1.00;;
40170;SDS011;37650;52.790;18.268;2022-07-15T11:31:38;5.70;;;1.00;;
40170;SDS011;37650;52.790;18.268;2022-07-15T11:35:01;3.60;;;0.90;;
40170;SDS011;37650;52.790;18.268;2022-07-15T11:38:24;4.70;;;0.90;;
40170;SDS011;37650;52.790;18.268;2022-07-15T11:41:53;4.80;;;0.80;;
40170;SDS011;37650;52.790;18.268;2022-07-15T11:45:33;5.50;;;1.20;;
40170;SDS011;37650;52.790;18.268;2022-07-15T11:48:57;6.50;;;1.10;;
40170;SDS011;37650;52.790;18.268;2022-07-15T11:52:22;3.30;;;0.80;;
40170;SDS011;37650;52.790;18.268;2022-07-15T11:55:47;5.90;;;1.20;;
40170;SDS011;37650;52.790;18.268;2022-07-15T11:59:12;5.10;;;1.20;;
40170;SDS011;37650;52.790;18.268;2022-07-15T12:02:34;5.50;;;0.80;;
40170;SDS011;37650;52.790;18.268;2022-07-15T12:06:08;4.20;;;0.80;;
40170;SDS011;37650;52.790;18.268;2022-07-15T12:09:41;3.70;;;1.10;;
40170;SDS011;37650;52.790;18.268;2022-07-15T12:13:07;4.80;;;0.90;;
40170;SDS011;37650;52.790;18.268;2022-07-15T12:16:31;4.00;;;0.90;;
40170;SDS011;37650;52.790;18.268;2022-07-15T12:19:54;5.40;;;1.20;;
40170;SDS011;37650;52.790;18.268;2022-07-15T12:23:15;5.70;;;0.80;;
40170;SDS011;37650;52.790;18.268;2022-07-15T12:26:39;4.80;;;0.90;;
40170;SDS011;37650;52.790;18.268;2022-07-15T12:30:05;4.40;;;1.00;;
40170;SDS011;37650;52.790;18.268;2022-07-15T12:33:27;8.70;;;1.10;;
40170;SDS011;37650;52.790;18.268;2022-07-15T12:36:55;3.40;;;1.10;;
40170;SDS011;37650;52.790;18.268;2022-07-15T12:40:21;4.30;;;1.10;;
40170;SDS011;37650;52.790;18.268;2022-07-15T12:47:16;6.50;;;1.20;;
40170;SDS011;37650;52.790;18.268;2022-07-15T12:54:11;5.10;;;1.10;;
40170;SDS011;37650;52.790;18.268;2022-07-15T12:57:36;6.30;;;1.20;;
40170;SDS011;37650;52.790;18.268;2022-07-15T13:01:07;3.20;;;0.90;;
40170;SDS011;37650;52.790;18.268;2022-07-15T13:04:30;4.30;;;1.00;;
40170;SDS011;37650;52.790;18.268;2022-07-15T13:07:51;3.70;;;1.00;;
40170;SDS011;37650;52.790;18.268;2022-07-15T13:11:12;3.90;;;1.20;;
40170;SDS011;37650;52.790;18.268;2022-07-15T13:14:33;5.80;;;1.10;;
40170;SDS011;37650;52.790;18.268;2022-07-15T13:17:53;4.50;;;1.00;;
40170;SDS011;37650;52.790;18.268;2022-07-15T13:21:15;4.90;;;1.00;;
40170;SDS011;37650;52.790;18.268;2022-07-15T13:24:36;5.90;;;1.20;;
40170;SDS011;37650;52.790;18.268;2022-07-15T13:27:57;5.00;;;0.90;;
40170;SDS011;37650;52.790;18.268;2022-07-15T13:31:19;4.20;;;1.00;;
40170;SDS011;37650;52.790;18.268;2022-07-15T13:34:39;4.20;;;0.80;;
40170;SDS011;37650;52.790;18.268;2022-07-15T13:38:00;4.70;;;1.10;;
40170;SDS011;37650;52.790;18.268;2022-07-15T13:41:21;4.10;;;1.20;;
40170;SDS011;37650;52.790;18.268;2022-07-15T13:44:42;4.50;;;1.10;;
40170;SDS011;37650;52.790;18.268;2022-07-15T13:48:04;4.10;;;1.00;;
40170;SDS011;37650;52.790;18.268;2022-07-15T13:51:25;5.60;;;1.00;;
40170;SDS011;37650;52.790;18.268;2022-07-15T13:54:46;7.50;;;1.20;;
40170;SDS011;37650;52.790;18.268;2022-07-15T13:58:06;5.50;;;0.90;;
40170;SDS011;37650;52.790;18.268;2022-07-15T14:01:28;4.20;;;1.10;;
40170;SDS011;37650;52.790;18.268;2022-07-15T14:04:51;5.70;;;1.50;;
40170;SDS011;37650;52.790;18.268;2022-07-15T14:08:12;6.90;;;1.80;;
40170;SDS011;37650;52.790;18.268;2022-07-15T14:11:33;6.20;;;1.10;;
40170;SDS011;37650;52.790;18.268;2022-07-15T14:14:53;4.10;;;1.50;;
40170;SDS011;37650;52.790;18.268;2022-07-15T14:18:14;5.10;;;1.00;;
40170;SDS011;37650;52.790;18.268;2022-07-15T14:21:35;4.40;;;1.00;;
40170;SDS011;37650;52.790;18.268;2022-07-15T14:24:56;3.60;;;1.10;;
40170;SDS011;37650;52.790;18.268;2022-07-15T14:28:16;3.20;;;0.90;;
40170;SDS011;37650;52.790;18.268;2022-07-15T14:31:38;8.00;;;1.20;;
40170;SDS011;37650;52.790;18.268;2022-07-15T14:34:58;5.00;;;1.50;;
40170;SDS011;37650;52.790;18.268;2022-07-15T14:38:20;3.40;;;1.10;;
40170;SDS011;37650;52.790;18.268;2022-07-15T14:41:41;3.70;;;1.10;;
40170;SDS011;37650;52.790;18.268;2022-07-15T14:45:02;5.40;;;1.30;;
40170;SDS011;37650;52.790;18.268;2022-07-15T14:48:24;6.20;;;1.50;;
40170;SDS011;37650;52.790;18.268;2022-07-15T14:51:47;2.80;;;1.00;;
40170;SDS011;37650;52.790;18.268;2022-07-15T14:55:08;4.90;;;1.00;;
40170;SDS011;37650;52.790;18.268;2022-07-15T14:58:29;3.60;;;1.20;;
40170;SDS011;37650;52.790;18.268;2022-07-15T15:01:50;7.40;;;1.10;;
40170;SDS011;37650;52.790;18.268;2022-07-15T15:05:13;4.40;;;0.90;;
40170;SDS011;37650;52.790;18.268;2022-07-15T15:08:34;5.90;;;1.10;;
40170;SDS011;37650;52.790;18.268;2022-07-15T15:11:55;3.60;;;0.90;;
40170;SDS011;37650;52.790;18.268;2022-07-15T15:15:16;3.70;;;1.10;;
40170;SDS011;37650;52.790;18.268;2022-07-15T15:18:36;8.00;;;1.10;;
40170;SDS011;37650;52.790;18.268;2022-07-15T15:21:57;6.30;;;1.00;;
40170;SDS011;37650;52.790;18.268;2022-07-15T15:25:18;6.00;;;1.20;;
40170;SDS011;37650;52.790;18.268;2022-07-15T15:28:59;6.10;;;1.10;;
40170;SDS011;37650;52.790;18.268;2022-07-15T15:32:20;3.40;;;1.00;;
40170;SDS011;37650;52.790;18.268;2022-07-15T15:35:41;4.00;;;1.20;;
40170;SDS011;37650;52.790;18.268;2022-07-15T15:39:03;3.30;;;1.10;;
40170;SDS011;37650;52.790;18.268;2022-07-15T15:45:45;7.20;;;1.30;;
40170;SDS011;37650;52.790;18.268;2022-07-15T15:49:05;4.90;;;1.00;;
40170;SDS011;37650;52.790;18.268;2022-07-15T15:52:26;5.20;;;1.10;;
40170;SDS011;37650;52.790;18.268;2022-07-15T15:55:47;2.50;;;1.00;;
40170;SDS011;37650;52.790;18.268;2022-07-15T15:59:08;7.10;;;1.40;;
40170;SDS011;37650;52.790;18.268;2022-07-15T16:02:29;4.30;;;1.10;;
40170;SDS011;37650;52.790;18.268;2022-07-15T16:05:50;10.80;;;1.10;;
40170;SDS011;37650;52.790;18.268;2022-07-15T16:09:11;10.20;;;1.50;;
40170;SDS011;37650;52.790;18.268;2022-07-15T16:12:31;4.80;;;1.20;;
40170;SDS011;37650;52.790;18.268;2022-07-15T16:15:53;4.20;;;1.20;;
40170;SDS011;37650;52.790;18.268;2022-07-15T16:19:14;5.30;;;1.30;;
40170;SDS011;37650;52.790;18.268;2022-07-15T16:22:35;6.90;;;1.30;;
40170;SDS011;37650;52.790;18.268;2022-07-15T16:26:13;3.80;;;1.00;;
40170;SDS011;37650;52.790;18.268;2022-07-15T16:29:34;2.00;;;0.70;;
40170;SDS011;37650;52.790;18.268;2022-07-15T16:32:55;2.90;;;0.70;;
40170;SDS011;37650;52.790;18.268;2022-07-15T16:36:16;5.80;;;1.10;;
40170;SDS011;37650;52.790;18.268;2022-07-15T16:39:37;4.60;;;1.10;;
40170;SDS011;37650;52.790;18.268;2022-07-15T16:42:58;3.00;;;1.20;;
40170;SDS011;37650;52.790;18.268;2022-07-15T16:46:20;5.10;;;1.20;;
40170;SDS011;37650;52.790;18.268;2022-07-15T16:49:40;2.70;;;0.70;;
40170;SDS011;37650;52.790;18.268;2022-07-15T16:53:01;3.60;;;0.90;;
40170;SDS011;37650;52.790;18.268;2022-07-15T16:56:22;8.10;;;1.30;;
40170;SDS011;37650;52.790;18.268;2022-07-15T16:59:42;3.20;;;0.90;;
40170;SDS011;37650;52.790;18.268;2022-07-15T17:03:03;4.00;;;1.20;;
40170;SDS011;37650;52.790;18.268;2022-07-15T17:06:24;4.90;;;1.30;;
40170;SDS011;37650;52.790;18.268;2022-07-15T17:09:44;7.30;;;1.20;;
40170;SDS011;37650;52.790;18.268;2022-07-15T17:13:05;3.50;;;1.10;;
40170;SDS011;37650;52.790;18.268;2022-07-15T17:16:26;17.50;;;1.40;;
40170;SDS011;37650;52.790;18.268;2022-07-15T17:19:48;7.00;;;1.20;;
40170;SDS011;37650;52.790;18.268;2022-07-15T17:23:08;7.70;;;1.70;;
40170;SDS011;37650;52.790;18.268;2022-07-15T17:26:30;5.60;;;1.10;;
40170;SDS011;37650;52.790;18.268;2022-07-15T17:29:51;6.10;;;1.30;;
40170;SDS011;37650;52.790;18.268;2022-07-15T17:33:12;3.90;;;1.10;;
40170;SDS011;37650;52.790;18.268;2022-07-15T17:36:33;6.00;;;1.50;;
40170;SDS011;37650;52.790;18.268;2022-07-15T17:43:16;4.50;;;1.20;;
40170;SDS011;37650;52.790;18.268;2022-07-15T17:46:37;7.00;;;1.00;;
40170;SDS011;37650;52.790;18.268;2022-07-15T17:49:58;5.30;;;1.60;;
40170;SDS011;37650;52.790;18.268;2022-07-15T17:53:18;4.70;;;1.30;;
40170;SDS011;37650;52.790;18.268;2022-07-15T17:56:40;5.80;;;1.10;;
40170;SDS011;37650;52.790;18.268;2022-07-15T18:00:02;8.10;;;1.40;;
40170;SDS011;37650;52.790;18.268;2022-07-15T18:03:32;5.40;;;1.40;;
40170;SDS011;37650;52.790;18.268;2022-07-15T18:06:53;7.10;;;1.30;;
40170;SDS011;37650;52.790;18.268;2022-07-15T18:10:15;5.40;;;1.80;;
40170;SDS011;37650;52.790;18.268;2022-07-15T18:13:36;4.20;;;1.30;;
40170;SDS011;37650;52.790;18.268;2022-07-15T18:16:58;5.90;;;1.30;;
40170;SDS011;37650;52.790;18.268;2022-07-15T18:20:20;6.10;;;1.60;;
40170;SDS011;37650;52.790;18.268;2022-07-15T18:23:42;7.80;;;2.10;;
40170;SDS011;37650;52.790;18.268;2022-07-15T18:27:04;4.90;;;1.20;;
40170;SDS011;37650;52.790;18.268;2022-07-15T18:30:25;6.40;;;1.20;;
40170;SDS011;37650;52.790;18.268;2022-07-15T18:33:47;5.20;;;1.30;;
40170;SDS011;37650;52.790;18.268;2022-07-15T18:37:08;9.70;;;2.60;;
40170;SDS011;37650;52.790;18.268;2022-07-15T18:40:30;6.70;;;2.40;;
40170;SDS011;37650;52.790;18.268;2022-07-15T18:43:51;4.90;;;1.60;;
40170;SDS011;37650;52.790;18.268;2022-07-15T18:47:12;14.30;;;2.20;;
40170;SDS011;37650;52.790;18.268;2022-07-15T18:50:32;4.10;;;1.20;;
40170;SDS011;37650;52.790;18.268;2022-07-15T18:53:53;4.10;;;1.20;;
40170;SDS011;37650;52.790;18.268;2022-07-15T18:57:14;8.90;;;1.60;;
40170;SDS011;37650;52.790;18.268;2022-07-15T19:00:35;9.90;;;2.40;;
40170;SDS011;37650;52.790;18.268;2022-07-15T19:03:56;6.90;;;2.20;;
40170;SDS011;37650;52.790;18.268;2022-07-15T19:07:18;7.20;;;2.20;;
40170;SDS011;37650;52.790;18.268;2022-07-15T19:10:39;6.80;;;2.20;;
40170;SDS011;37650;52.790;18.268;2022-07-15T19:14:01;6.00;;;2.10;;
40170;SDS011;37650;52.790;18.268;2022-07-15T19:17:24;8.30;;;1.90;;
40170;SDS011;37650;52.790;18.268;2022-07-15T19:20:45;4.70;;;1.50;;
40170;SDS011;37650;52.790;18.268;2022-07-15T19:24:06;4.20;;;1.40;;
40170;SDS011;37650;52.790;18.268;2022-07-15T19:27:27;7.10;;;1.80;;
40170;SDS011;37650;52.790;18.268;2022-07-15T19:30:49;5.70;;;1.40;;
40170;SDS011;37650;52.790;18.268;2022-07-15T19:34:10;5.10;;;1.80;;
40170;SDS011;37650;52.790;18.268;2022-07-15T19:37:34;5.50;;;1.70;;
40170;SDS011;37650;52.790;18.268;2022-07-15T19:40:57;7.40;;;1.80;;
40170;SDS011;37650;52.790;18.268;2022-07-15T19:44:18;6.00;;;1.70;;
40170;SDS011;37650;52.790;18.268;2022-07-15T19:47:40;7.90;;;2.00;;
40170;SDS011;37650;52.790;18.268;2022-07-15T19:51:01;5.20;;;1.70;;
40170;SDS011;37650;52.790;18.268;2022-07-15T19:54:22;8.10;;;2.10;;
40170;SDS011;37650;52.790;18.268;2022-07-15T19:57:43;8.20;;;2.30;;
40170;SDS011;37650;52.790;18.268;2022-07-15T20:01:04;5.50;;;1.70;;
40170;SDS011;37650;52.790;18.268;2022-07-15T20:04:25;6.60;;;2.10;;
40170;SDS011;37650;52.790;18.268;2022-07-15T20:07:47;6.90;;;1.90;;
40170;SDS011;37650;52.790;18.268;2022-07-15T20:11:08;9.70;;;2.20;;
40170;SDS011;37650;52.790;18.268;2022-07-15T20:14:28;10.50;;;2.10;;
40170;SDS011;37650;52.790;18.268;2022-07-15T20:17:50;8.60;;;2.40;;
40170;SDS011;37650;52.790;18.268;2022-07-15T20:21:14;7.20;;;2.10;;
40170;SDS011;37650;52.790;18.268;2022-07-15T20:24:36;9.20;;;2.00;;
40170;SDS011;37650;52.790;18.268;2022-07-15T20:27:58;7.90;;;2.80;;
40170;SDS011;37650;52.790;18.268;2022-07-15T20:31:19;11.40;;;2.40;;
40170;SDS011;37650;52.790;18.268;2022-07-15T20:34:39;6.90;;;2.10;;
40170;SDS011;37650;52.790;18.268;2022-07-15T20:38:01;6.80;;;1.80;;
40170;SDS011;37650;52.790;18.268;2022-07-15T20:41:22;8.60;;;2.40;;
40170;SDS011;37650;52.790;18.268;2022-07-15T20:44:43;4.60;;;1.70;;
40170;SDS011;37650;52.790;18.268;2022-07-15T20:48:03;9.10;;;2.00;;
40170;SDS011;37650;52.790;18.268;2022-07-15T20:51:24;7.60;;;1.60;;